Attleboro Falls, Massachusetts
Current Conditions -  °F | °C
As of 11:55 PM on Saturday 22 Nov 2014 (Local Time) from KSFZ Reporting Station
Scattered Clouds Scattered Clouds  
Wind Chill:   Ceiling: Unl
Heat Index:   Visibility: 10mi
Dew Point: -7°   Wind: 10mph
Humidity: 39%   Direction: 230°SW
Pressure: 30.08"   Gusts: 18mph
Location:  41.97°N, 71.32°W
Report Text: KSFZ 230455Z 23009G16KT 190V250 10SM SCT085 SCT120 06/M07 A3008 RMK AO1
Loading
Personal Weather Stations






























Interactive Weather Map New forecast layout! Learn more

10-Day Weather Forecast

Advertisements
Track Severe Weather on mobile